createdAt,value
2018-08-16T00:01:41.450Z,90.90
2018-08-16T00:04:10.125Z,91.70
2018-08-16T00:06:38.705Z,93.40
2018-08-16T00:09:08.057Z,92.20
2018-08-16T00:11:36.761Z,92.20
2018-08-16T00:14:05.417Z,91.40
2018-08-16T00:16:34.076Z,91.90
2018-08-16T00:19:02.661Z,92.00
2018-08-16T00:21:31.296Z,91.80
2018-08-16T00:23:59.879Z,92.90
2018-08-16T00:26:28.505Z,92.30
2018-08-16T00:28:57.081Z,93.10
2018-08-16T00:31:25.701Z,93.50
2018-08-16T00:33:54.281Z,92.70
2018-08-16T00:36:22.885Z,92.70
2018-08-16T00:38:51.506Z,92.10
2018-08-16T00:41:20.114Z,92.20
2018-08-16T00:43:48.725Z,92.60
2018-08-16T00:46:17.360Z,92.00
2018-08-16T00:48:46.056Z,92.20
2018-08-16T00:51:14.706Z,92.90
2018-08-16T00:53:43.333Z,92.50
2018-08-16T00:56:11.941Z,92.00
2018-08-16T00:58:40.528Z,92.30
2018-08-16T01:01:09.165Z,92.80
2018-08-16T01:03:37.802Z,92.60
2018-08-16T01:06:06.514Z,93.60
2018-08-16T01:08:35.085Z,94.20
2018-08-16T01:11:03.826Z,93.70
2018-08-16T01:13:32.392Z,93.20
2018-08-16T01:16:01.029Z,93.60
2018-08-16T01:18:29.649Z,93.80
2018-08-16T01:20:58.339Z,92.90
2018-08-16T01:23:26.974Z,94.10
2018-08-16T01:25:55.701Z,93.00
2018-08-16T01:28:24.302Z,93.30
2018-08-16T01:30:52.974Z,92.80
2018-08-16T01:33:21.581Z,92.80
2018-08-16T01:35:50.205Z,93.80
2018-08-16T01:38:18.827Z,93.50
2018-08-16T01:40:47.429Z,93.30
2018-08-16T01:43:16.061Z,93.90
2018-08-16T01:45:44.665Z,94.30
2018-08-16T01:48:13.607Z,94.30
2018-08-16T01:50:42.373Z,93.70
2018-08-16T01:53:11.197Z,94.10
2018-08-16T01:55:39.821Z,94.10
2018-08-16T01:58:08.709Z,95.10
2018-08-16T02:00:37.349Z,94.30
2018-08-16T02:03:06.202Z,94.10
2018-08-16T02:05:34.835Z,93.90
2018-08-16T02:08:03.526Z,94.20
2018-08-16T02:10:32.194Z,94.40
2018-08-16T02:13:00.792Z,94.00
2018-08-16T02:15:29.377Z,95.10
2018-08-16T02:17:58.021Z,94.50
2018-08-16T02:20:26.617Z,94.60
2018-08-16T02:22:55.243Z,94.40
2018-08-16T02:25:23.838Z,94.40
2018-08-16T02:27:52.467Z,94.80
2018-08-16T02:30:21.066Z,94.70
2018-08-16T02:32:49.673Z,95.00
2018-08-16T02:35:18.293Z,95.00
2018-08-16T02:37:46.893Z,95.90
2018-08-16T02:40:15.534Z,94.60
2018-08-16T02:42:44.149Z,94.60
2018-08-16T02:45:12.735Z,94.00
2018-08-16T02:47:41.382Z,94.30
2018-08-16T02:50:10.006Z,94.00
2018-08-16T02:52:38.601Z,95.00
2018-08-16T02:55:07.696Z,94.40
2018-08-16T02:57:36.489Z,94.60
2018-08-16T03:00:06.842Z,95.60
2018-08-16T03:02:35.443Z,94.70
2018-08-16T03:05:04.701Z,94.80
2018-08-16T03:07:33.306Z,94.10
2018-08-16T03:10:01.889Z,94.40
2018-08-16T03:12:30.466Z,94.20
2018-08-16T03:14:59.072Z,95.50
2018-08-16T03:17:27.641Z,94.70
2018-08-16T03:19:56.232Z,94.70
2018-08-16T03:22:24.805Z,95.50
2018-08-16T03:24:53.393Z,95.60
2018-08-16T03:27:22.067Z,94.90
2018-08-16T03:29:50.659Z,95.30
2018-08-16T03:32:19.268Z,95.10
2018-08-16T03:34:47.873Z,96.20
2018-08-16T03:37:16.976Z,94.90
2018-08-16T03:39:45.601Z,95.90
2018-08-16T03:42:14.170Z,95.40
2018-08-16T03:44:42.813Z,95.90
2018-08-16T03:47:11.393Z,97.30
2018-08-16T03:49:39.993Z,96.00
2018-08-16T03:52:08.636Z,96.00
2018-08-16T03:54:37.297Z,96.80
2018-08-16T03:57:05.950Z,95.10
2018-08-16T03:59:34.573Z,96.80
2018-08-16T04:02:03.196Z,96.40
2018-08-16T04:04:31.799Z,95.70
2018-08-16T04:07:00.545Z,95.90
2018-08-16T04:09:29.139Z,95.50
2018-08-16T04:11:57.760Z,95.40
2018-08-16T04:14:26.341Z,94.30
2018-08-16T04:16:54.930Z,94.70
2018-08-16T04:19:23.555Z,94.70
2018-08-16T04:21:52.129Z,96.10
2018-08-16T04:24:20.769Z,95.70
2018-08-16T04:26:50.653Z,95.40
2018-08-16T04:29:19.368Z,95.90
2018-08-16T04:31:47.981Z,95.30
2018-08-16T04:34:16.577Z,95.70
2018-08-16T04:36:45.164Z,95.30
2018-08-16T04:39:13.777Z,96.10
2018-08-16T04:41:42.473Z,96.30
2018-08-16T04:44:11.017Z,94.70
2018-08-16T04:46:39.660Z,96.30
2018-08-16T04:49:08.332Z,95.80
2018-08-16T04:51:36.949Z,96.10
2018-08-16T04:54:05.593Z,97.10
2018-08-16T04:56:34.228Z,96.80
2018-08-16T04:59:02.934Z,98.60
2018-08-16T05:01:31.534Z,98.30
2018-08-16T05:04:01.005Z,97.70
2018-08-16T05:06:31.436Z,97.50
2018-08-16T05:09:00.055Z,96.60
2018-08-16T05:11:29.321Z,97.30
2018-08-16T05:13:57.892Z,98.60
2018-08-16T05:16:27.101Z,96.00
2018-08-16T05:18:55.701Z,95.60
2018-08-16T05:21:24.305Z,96.50
2018-08-16T05:23:52.937Z,96.20
2018-08-16T05:26:21.520Z,96.20
2018-08-16T05:28:50.121Z,97.10
2018-08-16T05:31:18.796Z,96.60
2018-08-16T05:33:47.632Z,96.30
2018-08-16T05:36:16.267Z,97.50
2018-08-16T05:38:44.853Z,96.60
2018-08-16T05:41:13.477Z,97.10
2018-08-16T05:43:42.085Z,99.50
2018-08-16T05:46:10.933Z,97.40
2018-08-16T05:48:39.504Z,96.60
2018-08-16T05:51:08.162Z,95.20
2018-08-16T05:53:37.003Z,94.10
2018-08-16T05:56:05.881Z,93.50
2018-08-16T05:58:34.566Z,92.90
2018-08-16T06:01:04.209Z,91.60
2018-08-16T06:03:32.798Z,90.70
2018-08-16T06:06:01.437Z,89.60
2018-08-16T06:08:30.123Z,88.50
2018-08-16T06:10:59.301Z,88.10
2018-08-16T06:13:27.910Z,87.60
2018-08-16T06:15:56.553Z,84.90
2018-08-16T06:18:25.149Z,84.10
2018-08-16T06:20:53.708Z,80.80
2018-08-16T06:23:22.305Z,80.20
2018-08-16T06:25:52.610Z,79.00
2018-08-16T06:28:21.273Z,76.50
2018-08-16T06:30:50.042Z,75.70
2018-08-16T06:33:20.253Z,73.20
2018-08-16T06:35:48.925Z,73.20
2018-08-16T06:38:18.582Z,71.10
2018-08-16T06:40:47.262Z,71.10
2018-08-16T06:43:15.918Z,69.00
2018-08-16T06:45:45.186Z,67.30
2018-08-16T06:48:14.024Z,67.10
2018-08-16T06:50:42.667Z,65.10
2018-08-16T06:53:11.294Z,62.10
2018-08-16T06:55:40.656Z,61.80
2018-08-16T06:58:09.461Z,60.90
2018-08-16T07:00:38.118Z,60.10
2018-08-16T07:03:07.138Z,60.60
2018-08-16T07:05:35.716Z,58.30
2018-08-16T07:08:04.387Z,57.60
2018-08-16T07:10:33.040Z,61.00
2018-08-16T07:13:02.402Z,56.70
2018-08-16T07:15:31.020Z,55.30
2018-08-16T07:17:59.635Z,56.50
2018-08-16T07:20:28.267Z,56.70
2018-08-16T07:22:56.901Z,53.70
2018-08-16T07:25:25.521Z,56.20
2018-08-16T07:27:54.161Z,52.20
2018-08-16T07:30:22.776Z,52.70
2018-08-16T07:32:51.662Z,49.80
2018-08-16T07:35:20.325Z,49.10
2018-08-16T07:37:49.013Z,51.90
2018-08-16T07:40:18.145Z,47.20
2018-08-16T07:42:46.766Z,47.10
2018-08-16T07:45:15.381Z,46.60
2018-08-16T07:47:44.005Z,46.70
2018-08-16T07:50:12.783Z,46.40
2018-08-16T07:52:41.700Z,45.00
2018-08-16T07:55:10.987Z,42.10
2018-08-16T07:57:39.890Z,45.70
2018-08-16T08:00:12.289Z,46.30
2018-08-16T08:02:40.918Z,40.10
2018-08-16T08:05:09.529Z,40.20
2018-08-16T08:07:38.142Z,45.40
2018-08-16T08:10:06.981Z,41.00
2018-08-16T08:12:35.629Z,44.80
2018-08-16T08:15:04.973Z,38.70
2018-08-16T08:17:33.574Z,39.20
2018-08-16T08:20:02.260Z,40.20
2018-08-16T08:22:30.838Z,41.10
2018-08-16T08:25:01.452Z,39.70
2018-08-16T08:27:30.261Z,38.70
2018-08-16T08:29:58.902Z,39.70
2018-08-16T08:32:27.541Z,36.30
2018-08-16T08:34:56.212Z,37.80
2018-08-16T08:37:35.890Z,38.10
2018-08-16T08:40:04.942Z,38.70
2018-08-16T08:42:33.541Z,37.70
2018-08-16T08:45:02.186Z,35.60
2018-08-16T08:47:36.189Z,39.20
2018-08-16T08:50:06.658Z,36.20
2018-08-16T08:52:35.295Z,39.50
2018-08-16T08:55:14.881Z,33.80
2018-08-16T08:57:54.672Z,34.10
2018-08-16T09:00:23.301Z,38.30
2018-08-16T09:02:51.877Z,36.40
2018-08-16T09:05:20.541Z,36.60
2018-08-16T09:07:49.129Z,34.80
2018-08-16T09:10:54.206Z,33.40
2018-08-16T09:13:34.997Z,33.10
2018-08-16T09:16:08.981Z,32.60
2018-08-16T09:18:37.622Z,33.20
2018-08-16T09:21:06.411Z,33.90
2018-08-16T09:23:35.228Z,32.20
2018-08-16T09:26:09.067Z,32.60
2018-08-16T09:28:37.780Z,31.50
2018-08-16T09:31:17.886Z,32.10
2018-08-16T09:33:57.629Z,30.20
2018-08-16T09:36:26.366Z,31.60
2018-08-16T09:38:55.481Z,31.70
2018-08-16T09:41:24.149Z,32.70
2018-08-16T09:43:52.774Z,30.20
2018-08-16T09:46:47.169Z,31.60
2018-08-16T09:49:16.030Z,32.60
2018-08-16T09:51:46.085Z,30.60
2018-08-16T09:54:14.666Z,29.40
2018-08-16T09:56:43.947Z,29.80
2018-08-16T09:59:12.710Z,29.80
2018-08-16T10:01:41.362Z,29.20
2018-08-16T10:04:15.522Z,30.80
2018-08-16T10:06:44.721Z,29.90
2018-08-16T10:09:20.306Z,29.90
2018-08-16T10:11:49.149Z,30.10
2018-08-16T10:14:18.064Z,29.40
2018-08-16T10:16:46.729Z,28.00
2018-08-16T10:19:15.858Z,28.70
2018-08-16T10:21:48.314Z,29.20
2018-08-16T10:24:16.927Z,29.00
2018-08-16T10:26:45.794Z,28.70
2018-08-16T10:29:15.906Z,28.20
2018-08-16T10:31:46.629Z,29.20
2018-08-16T10:34:17.941Z,28.50
2018-08-16T10:36:51.218Z,30.60
2018-08-16T10:39:22.493Z,30.00
2018-08-16T10:41:51.119Z,29.90
2018-08-16T10:44:19.957Z,29.80
2018-08-16T10:46:48.596Z,30.00
2018-08-16T10:49:17.181Z,29.70
2018-08-16T10:52:07.749Z,29.70
2018-08-16T10:57:20.537Z,30.70
2018-08-16T10:59:55.658Z,31.30
2018-08-16T11:02:29.907Z,32.40
2018-08-16T11:04:58.692Z,32.00
2018-08-16T11:07:28.992Z,32.30
2018-08-16T11:09:59.893Z,33.40
2018-08-16T11:12:32.800Z,33.20
2018-08-16T11:15:11.731Z,34.30
2018-08-16T11:17:40.345Z,33.00
2018-08-16T11:20:08.986Z,34.20
2018-08-16T11:22:47.925Z,36.00
2018-08-16T11:25:20.613Z,35.80
2018-08-16T11:28:01.860Z,36.10
2018-08-16T11:30:30.592Z,36.40
2018-08-16T11:33:00.309Z,36.10
2018-08-16T11:35:29.296Z,36.60
2018-08-16T11:37:59.209Z,36.20
2018-08-16T11:40:29.777Z,37.90
2018-08-16T11:43:11.684Z,37.50
2018-08-16T11:45:45.957Z,37.70
2018-08-16T11:48:20.661Z,38.10
2018-08-16T11:50:49.236Z,38.30
2018-08-16T11:53:19.281Z,38.90
2018-08-16T11:55:51.141Z,39.60
2018-08-16T11:58:28.154Z,39.20
2018-08-16T12:01:14.641Z,37.90
2018-08-16T12:03:46.713Z,39.10
2018-08-16T12:06:18.356Z,39.80
2018-08-16T12:08:47.108Z,39.30
2018-08-16T12:11:16.813Z,40.10
2018-08-16T12:13:45.521Z,39.40
2018-08-16T12:16:14.089Z,40.60
2018-08-16T12:18:42.926Z,40.20
2018-08-16T12:21:11.631Z,40.70
2018-08-16T12:23:40.325Z,39.80
2018-08-16T12:26:10.162Z,41.20
2018-08-16T12:28:39.125Z,40.00
2018-08-16T12:31:08.157Z,41.10
2018-08-16T12:33:36.849Z,41.30
2018-08-16T12:36:06.318Z,41.50
2018-08-16T12:38:34.925Z,41.10
2018-08-16T12:41:04.355Z,40.80
2018-08-16T12:43:34.240Z,41.40
2018-08-16T12:46:02.850Z,41.40
2018-08-16T12:48:31.714Z,41.60
2018-08-16T12:51:00.482Z,41.20
2018-08-16T12:53:29.222Z,41.30
2018-08-16T12:55:58.106Z,41.50
2018-08-16T12:58:26.708Z,41.40
2018-08-16T13:00:55.321Z,42.00
2018-08-16T13:03:24.043Z,40.50
2018-08-16T13:05:52.646Z,41.80
2018-08-16T13:08:21.321Z,41.70
2018-08-16T13:10:49.895Z,42.10
2018-08-16T13:13:18.516Z,40.90
2018-08-16T13:15:47.101Z,41.00
2018-08-16T13:18:15.755Z,42.00
2018-08-16T13:20:44.374Z,41.30
2018-08-16T13:23:12.981Z,41.80
2018-08-16T13:25:41.593Z,41.10
2018-08-16T13:28:10.198Z,40.20
2018-08-16T13:30:38.813Z,41.20
2018-08-16T13:33:07.462Z,42.10
2018-08-16T13:35:36.380Z,40.50
2018-08-16T13:38:05.133Z,41.90
2018-08-16T13:40:33.770Z,41.60
2018-08-16T13:43:02.720Z,41.50
2018-08-16T13:45:31.585Z,42.00
2018-08-16T13:48:00.239Z,42.20
2018-08-16T13:50:28.881Z,42.10
2018-08-16T13:52:58.394Z,41.90
2018-08-16T13:55:27.043Z,41.80
2018-08-16T13:57:55.724Z,41.30
2018-08-16T14:00:24.366Z,42.00
2018-08-16T14:02:52.959Z,41.00
2018-08-16T14:05:21.577Z,41.90
2018-08-16T14:07:50.149Z,42.20
2018-08-16T14:10:18.780Z,41.00
2018-08-16T14:12:47.996Z,41.80
2018-08-16T14:15:16.669Z,42.20
2018-08-16T14:17:45.244Z,41.60
2018-08-16T14:20:13.882Z,41.70
2018-08-16T14:22:42.702Z,42.00
2018-08-16T14:25:11.290Z,42.60
2018-08-16T14:27:40.872Z,42.00
2018-08-16T14:30:09.814Z,41.90
2018-08-16T14:32:38.677Z,42.80
2018-08-16T14:35:07.381Z,42.70
2018-08-16T14:37:35.970Z,42.20
2018-08-16T14:40:05.094Z,42.30
2018-08-16T14:42:33.753Z,42.40
2018-08-16T14:45:04.564Z,42.40
2018-08-16T14:47:33.226Z,41.80
2018-08-16T14:50:01.910Z,42.70
2018-08-16T14:52:30.538Z,42.50
2018-08-16T14:54:59.190Z,41.10
2018-08-16T14:57:27.774Z,42.10
2018-08-16T14:59:56.410Z,42.40
2018-08-16T15:02:25.018Z,42.80
2018-08-16T15:04:53.761Z,42.60
2018-08-16T15:07:22.798Z,42.60
2018-08-16T15:09:51.481Z,42.60
2018-08-16T15:12:20.067Z,42.70
2018-08-16T15:14:48.655Z,41.80
2018-08-16T15:17:17.268Z,42.70
2018-08-16T15:19:45.913Z,42.10
2018-08-16T15:22:14.559Z,43.10
2018-08-16T15:24:43.163Z,42.60
2018-08-16T15:27:11.758Z,43.10
2018-08-16T15:29:40.337Z,43.20
2018-08-16T15:32:09.029Z,42.50
2018-08-16T15:34:37.577Z,43.10
2018-08-16T15:37:06.382Z,43.10
2018-08-16T15:39:35.100Z,42.90
2018-08-16T15:42:03.760Z,42.50
2018-08-16T15:44:32.328Z,43.10
2018-08-16T15:47:00.965Z,42.70
2018-08-16T15:49:29.641Z,43.20
2018-08-16T15:51:58.309Z,43.30
2018-08-16T15:54:26.898Z,43.20
2018-08-16T15:56:55.540Z,43.40
2018-08-16T15:59:24.123Z,43.50
2018-08-16T16:01:52.729Z,43.80
2018-08-16T16:04:21.303Z,43.90
2018-08-16T16:06:49.918Z,43.70
2018-08-16T16:09:18.550Z,43.60
2018-08-16T16:11:47.181Z,43.20
2018-08-16T16:14:15.761Z,43.40
2018-08-16T16:16:44.367Z,43.50
2018-08-16T16:19:13.155Z,43.70
2018-08-16T16:21:41.754Z,44.20
2018-08-16T16:24:10.334Z,43.50
2018-08-16T16:26:39.042Z,43.70
2018-08-16T16:29:07.616Z,44.10
2018-08-16T16:31:36.885Z,44.20
2018-08-16T16:34:05.456Z,43.00
2018-08-16T16:36:34.068Z,43.70
2018-08-16T16:39:02.677Z,44.00
2018-08-16T16:41:31.280Z,43.30
2018-08-16T16:43:59.866Z,43.70
2018-08-16T16:46:28.501Z,44.00
2018-08-16T16:48:57.108Z,44.30
2018-08-16T16:51:25.709Z,44.10
2018-08-16T16:53:54.364Z,43.90
2018-08-16T16:56:22.954Z,44.40
2018-08-16T16:58:51.809Z,44.00
2018-08-16T17:01:20.429Z,44.10
2018-08-16T17:03:49.168Z,44.80
2018-08-16T17:06:17.869Z,45.30
2018-08-16T17:08:46.500Z,44.90
2018-08-16T17:11:15.207Z,44.80
2018-08-16T17:13:43.821Z,45.00
2018-08-16T17:16:12.430Z,45.00
2018-08-16T17:18:41.094Z,45.10
2018-08-16T17:21:09.730Z,45.10
2018-08-16T17:23:38.380Z,44.90
2018-08-16T17:26:07.056Z,45.60
2018-08-16T17:28:35.614Z,45.50
2018-08-16T17:31:04.434Z,45.30
2018-08-16T17:33:33.028Z,45.70
2018-08-16T17:36:01.746Z,46.10
2018-08-16T17:38:30.353Z,46.00
2018-08-16T17:41:03.037Z,46.20
2018-08-16T17:43:31.653Z,46.30
2018-08-16T17:46:00.230Z,46.10
2018-08-16T17:48:28.849Z,46.50
2018-08-16T17:50:57.417Z,46.90
2018-08-16T17:53:26.125Z,46.50
2018-08-16T17:55:54.718Z,46.40
2018-08-16T17:58:23.320Z,46.10
2018-08-16T18:00:52.028Z,46.70
2018-08-16T18:03:24.460Z,49.50
2018-08-16T18:05:53.062Z,50.60
2018-08-16T18:08:21.703Z,52.80
2018-08-16T18:10:50.297Z,52.50
2018-08-16T18:13:18.901Z,54.40
2018-08-16T18:15:47.525Z,54.90
2018-08-16T18:18:16.129Z,55.00
2018-08-16T18:20:44.720Z,55.50
2018-08-16T18:23:13.326Z,56.20
2018-08-16T18:25:41.894Z,56.60
2018-08-16T18:28:10.501Z,57.40
2018-08-16T18:30:39.186Z,58.10
2018-08-16T18:33:08.057Z,57.90
2018-08-16T18:35:36.650Z,58.70
2018-08-16T18:38:05.316Z,59.70
2018-08-16T18:40:33.934Z,59.90
2018-08-16T18:43:03.220Z,60.30
2018-08-16T18:45:31.829Z,60.60
2018-08-16T18:48:00.429Z,60.70
2018-08-16T18:50:29.032Z,60.40
2018-08-16T18:52:57.605Z,60.80
2018-08-16T18:55:27.623Z,60.80
2018-08-16T18:58:03.199Z,61.00
2018-08-16T19:03:19.805Z,63.30
2018-08-16T19:05:54.231Z,63.30
2018-08-16T19:08:24.788Z,62.90
2018-08-16T19:10:53.506Z,64.60
2018-08-16T19:13:22.410Z,64.50
2018-08-16T19:15:52.059Z,64.60
2018-08-16T19:18:20.642Z,65.90
2018-08-16T19:20:49.290Z,65.40
2018-08-16T19:23:18.000Z,65.50
2018-08-16T19:25:46.623Z,66.40
2018-08-16T19:28:15.197Z,67.10
2018-08-16T19:30:43.850Z,67.50
2018-08-16T19:33:12.454Z,68.70
2018-08-16T19:35:41.061Z,68.50
2018-08-16T19:38:09.681Z,66.50
2018-08-16T19:40:38.333Z,67.60
2018-08-16T19:43:07.073Z,67.50
2018-08-16T19:45:35.770Z,68.00
2018-08-16T19:48:04.452Z,68.40
2018-08-16T19:50:32.990Z,68.80
2018-08-16T19:53:01.598Z,68.90
2018-08-16T19:55:30.192Z,69.70
2018-08-16T19:57:58.861Z,70.30
2018-08-16T20:00:27.442Z,69.70
2018-08-16T20:02:56.129Z,70.00
2018-08-16T20:05:24.710Z,70.10
2018-08-16T20:07:53.302Z,70.00
2018-08-16T20:10:21.911Z,69.10
2018-08-16T20:12:50.568Z,70.40
2018-08-16T20:15:19.172Z,70.40
2018-08-16T20:17:47.766Z,70.30
2018-08-16T20:20:16.368Z,71.20
2018-08-16T20:22:44.976Z,72.50
2018-08-16T20:25:13.594Z,71.90
2018-08-16T20:27:42.178Z,72.30
2018-08-16T20:30:10.922Z,72.50
2018-08-16T20:32:39.446Z,73.00
2018-08-16T20:35:08.072Z,72.00
2018-08-16T20:37:36.673Z,71.40
2018-08-16T20:40:06.117Z,71.50
2018-08-16T20:42:34.711Z,71.20
2018-08-16T20:45:03.384Z,72.20
2018-08-16T20:47:31.953Z,72.50
2018-08-16T20:50:00.548Z,72.10
2018-08-16T20:52:29.134Z,73.20
2018-08-16T20:54:57.697Z,73.10
2018-08-16T20:57:26.368Z,73.70
2018-08-16T20:59:54.868Z,73.00
2018-08-16T21:02:23.469Z,73.80
2018-08-16T21:04:52.034Z,72.10
2018-08-16T21:07:20.645Z,74.70
2018-08-16T21:09:49.224Z,72.50
2018-08-16T21:12:17.854Z,71.90
2018-08-16T21:14:46.420Z,74.20
2018-08-16T21:17:15.045Z,74.00
2018-08-16T21:19:43.677Z,73.00
2018-08-16T21:22:12.278Z,74.30
2018-08-16T21:24:40.886Z,72.70
2018-08-16T21:27:09.534Z,74.20
2018-08-16T21:29:38.134Z,75.80
2018-08-16T21:32:06.813Z,74.50
2018-08-16T21:34:35.407Z,75.30
2018-08-16T21:37:04.015Z,77.00
2018-08-16T21:39:32.631Z,76.00
2018-08-16T21:42:01.244Z,75.40
2018-08-16T21:44:29.815Z,76.60
2018-08-16T21:46:58.421Z,76.30
2018-08-16T21:49:27.003Z,75.70
2018-08-16T21:51:55.630Z,76.50
2018-08-16T21:54:24.288Z,77.20
2018-08-16T21:56:52.993Z,76.60
2018-08-16T21:59:21.565Z,76.30
2018-08-16T22:01:50.257Z,77.40
2018-08-16T22:04:18.985Z,76.90
2018-08-16T22:06:58.621Z,76.20
2018-08-16T22:09:27.218Z,77.30
2018-08-16T22:11:55.867Z,75.20
2018-08-16T22:14:24.557Z,75.80
2018-08-16T22:16:53.133Z,76.80
2018-08-16T22:19:21.880Z,76.90
2018-08-16T22:21:50.460Z,74.80
2018-08-16T22:24:19.330Z,76.90
2018-08-16T22:26:48.015Z,76.90
2018-08-16T22:29:16.634Z,76.30
2018-08-16T22:31:45.280Z,76.80
2018-08-16T22:34:13.942Z,77.90
2018-08-16T22:36:42.651Z,77.40
2018-08-16T22:39:12.726Z,78.00
2018-08-16T22:41:41.296Z,77.30
2018-08-16T22:44:10.288Z,78.00
2018-08-16T22:46:39.563Z,77.80
2018-08-16T22:49:08.154Z,77.30
2018-08-16T22:51:36.750Z,77.40
2018-08-16T22:54:05.378Z,75.10
2018-08-16T22:56:34.005Z,75.90
2018-08-16T22:59:02.617Z,77.50
2018-08-16T23:01:31.197Z,75.70
2018-08-16T23:04:00.333Z,77.70
2018-08-16T23:06:28.923Z,77.90
2018-08-16T23:08:57.520Z,77.60
2018-08-16T23:11:26.090Z,78.00
2018-08-16T23:13:54.746Z,79.10
2018-08-16T23:16:23.320Z,80.90
2018-08-16T23:18:51.917Z,79.30
2018-08-16T23:21:20.598Z,80.30
2018-08-16T23:23:49.209Z,79.30
2018-08-16T23:26:17.785Z,78.90
2018-08-16T23:28:46.400Z,80.70
2018-08-16T23:31:14.993Z,79.10
2018-08-16T23:33:43.617Z,80.00
2018-08-16T23:36:12.280Z,80.10
2018-08-16T23:38:40.881Z,80.30
2018-08-16T23:41:09.481Z,79.30
2018-08-16T23:43:38.099Z,79.50
2018-08-16T23:46:06.706Z,79.50
2018-08-16T23:48:35.338Z,79.50
2018-08-16T23:51:04.029Z,77.90
2018-08-16T23:53:33.154Z,79.90
2018-08-16T23:56:01.762Z,80.10
2018-08-16T23:58:30.338Z,80.50
